Pine Hill, Pennsylvania
Current Conditions -  °F | °C
As of 10:31 AM on Thursday 23 Oct 2014 (Local Time) from KMUI Reporting Station
Overcast Overcast  
Wind Chill: 54°   Ceiling: 2600
Heat Index: 54°   Visibility: 10mi
Dew Point: 46°   Wind: 13mph
Humidity: 77%   Direction: 340°NNW
Pressure: 29.87"   Gusts: 30mph
Location:  40.6882°N, 76.264°W
Report Text: KMUI 231431Z AUTO 34011G26KT 280V030 10SM OVC026 12/08 A2987 RMK AO2 WSHFT 28
Loading
Personal Weather Stations






























Interactive Weather Map
Tropical Storm Tracking
New forecast layout! Learn more

10-Day Weather Forecast

Advertisements
Track Severe Weather on mobile